Time;durP1;ratioP1;P1;durP2;ratioP2;P2;SDS_P1;SDS_P2;PMS_P1;PMS_P2;Temp;Humidity;BMP_temperature;BMP_pressure;BME280_temperature;BME280_humidity;BME280_pressure;Samples;Min_cycle;Max_cycle;Signal;HPM_P1;HPM_P2
2023/11/23 00:00:13;;;;;;;0.70;0.70;;;5.20;99.90;;;;;;5060262;28;20277;-70
2023/11/23 00:02:39;;;;;;;0.65;0.65;;;5.20;99.90;;;;;;5050231;28;20265;-71
2023/11/23 00:05:06;;;;;;;0.70;0.70;;;5.30;99.90;;;;;;5050108;28;20533;-70
2023/11/23 00:07:32;;;;;;;0.68;0.68;;;5.30;99.90;;;;;;5048505;28;20206;-72
2023/11/23 00:09:58;;;;;;;0.60;0.60;;;5.40;99.90;;;;;;5050037;28;20205;-72
2023/11/23 00:12:24;;;;;;;0.80;0.80;;;5.50;99.90;;;;;;5050058;28;20197;-76
2023/11/23 00:14:51;;;;;;;0.60;0.60;;;5.60;99.90;;;;;;5049855;28;20208;-74
2023/11/23 00:17:17;;;;;;;0.65;0.65;;;5.70;99.90;;;;;;5049806;28;20570;-75
2023/11/23 00:19:43;;;;;;;0.60;0.60;;;5.70;99.90;;;;;;5049721;28;20216;-76
2023/11/23 00:22:09;;;;;;;0.60;0.60;;;5.80;99.90;;;;;;5049674;28;20196;-76
2023/11/23 00:24:34;;;;;;;0.50;0.50;;;5.80;99.90;;;;;;5049382;28;20197;-75
2023/11/23 00:27:00;;;;;;;0.60;0.60;;;5.80;99.90;;;;;;5048696;28;20208;-75
2023/11/23 00:29:26;;;;;;;0.70;0.70;;;5.70;99.90;;;;;;5049594;28;20202;-75
2023/11/23 00:31:52;;;;;;;0.70;0.70;;;5.70;99.90;;;;;;5049417;28;20672;-76
2023/11/23 00:34:17;;;;;;;0.70;0.70;;;5.60;99.90;;;;;;5049524;28;20205;-76
2023/11/23 00:36:43;;;;;;;0.70;0.70;;;5.50;99.90;;;;;;5051834;28;20198;-76
2023/11/23 00:39:09;;;;;;;0.70;0.70;;;5.40;99.90;;;;;;5069130;28;20199;-76
2023/11/23 00:41:38;;;;;;;0.60;0.60;;;5.60;99.90;;;;;;5069247;28;20559;-74
2023/11/23 00:44:05;;;;;;;0.75;0.75;;;5.60;99.90;;;;;;5069370;28;20185;-76
2023/11/23 00:46:31;;;;;;;0.70;0.70;;;5.60;99.90;;;;;;5069118;28;20207;-76
2023/11/23 00:48:59;;;;;;;0.63;0.63;;;5.50;99.90;;;;;;5067770;28;20192;-75
2023/11/23 00:51:26;;;;;;;0.60;0.60;;;5.50;99.90;;;;;;5068813;28;20216;-75
2023/11/23 00:53:51;;;;;;;0.68;0.68;;;5.50;99.90;;;;;;5069129;28;20203;-76
2023/11/23 00:56:17;;;;;;;0.75;0.75;;;5.50;99.90;;;;;;5068751;28;20193;-76
2023/11/23 00:58:44;;;;;;;0.80;0.80;;;5.60;99.90;;;;;;5068729;28;20769;-76
2023/11/23 01:01:16;;;;;;;0.70;0.70;;;5.60;99.90;;;;;;5068983;28;20207;-74
2023/11/23 01:03:42;;;;;;;0.60;0.60;;;5.60;99.90;;;;;;5067630;28;20723;-75
2023/11/23 01:06:08;;;;;;;0.60;0.60;;;5.60;99.90;;;;;;5069094;28;20330;-75
2023/11/23 01:08:34;;;;;;;0.50;0.50;;;5.60;99.90;;;;;;5068615;28;20193;-75
2023/11/23 01:11:01;;;;;;;0.55;0.55;;;5.70;99.90;;;;;;5069007;28;20223;-76
2023/11/23 01:13:27;;;;;;;0.60;0.60;;;5.80;99.90;;;;;;5069774;28;20196;-74
2023/11/23 01:15:53;;;;;;;0.60;0.60;;;5.80;99.90;;;;;;5069080;28;20649;-74
2023/11/23 01:18:19;;;;;;;0.60;0.60;;;5.80;99.90;;;;;;5068899;28;20262;-73
2023/11/23 01:20:44;;;;;;;0.70;0.70;;;5.80;99.90;;;;;;5067897;28;20671;-74
2023/11/23 01:23:13;;;;;;;0.57;0.57;;;5.90;99.90;;;;;;5067608;28;20250;-70
2023/11/23 01:25:38;;;;;;;0.60;0.60;;;5.80;99.90;;;;;;5068570;28;20224;-70
2023/11/23 01:28:04;;;;;;;0.60;0.60;;;5.80;99.90;;;;;;5068873;28;20224;-69
2023/11/23 01:30:30;;;;;;;0.70;0.70;;;5.80;99.90;;;;;;5068572;28;20204;-70
2023/11/23 01:32:56;;;;;;;0.68;0.68;;;5.80;99.90;;;;;;5068306;28;20204;-70
2023/11/23 01:35:22;;;;;;;2.15;1.90;;;5.80;99.90;;;;;;5068446;28;20197;-70
2023/11/23 01:37:48;;;;;;;2.00;1.90;;;5.80;99.90;;;;;;5068704;28;20200;-70
2023/11/23 01:40:15;;;;;;;0.50;0.50;;;5.70;99.90;;;;;;5067052;28;20266;-73
2023/11/23 01:42:41;;;;;;;0.60;0.60;;;5.80;99.90;;;;;;5068822;28;20622;-70
2023/11/23 01:45:07;;;;;;;0.50;0.50;;;5.70;99.90;;;;;;5068612;28;20193;-70
2023/11/23 01:47:36;;;;;;;0.70;0.70;;;5.60;99.90;;;;;;5068322;28;20659;-72
2023/11/23 01:50:03;;;;;;;0.60;0.60;;;5.60;99.90;;;;;;5068419;28;20192;-70
2023/11/23 01:52:30;;;;;;;0.63;0.63;;;5.70;99.90;;;;;;5068408;28;20786;-71
2023/11/23 01:54:56;;;;;;;0.60;0.60;;;5.70;99.90;;;;;;5065151;28;20205;-69
2023/11/23 01:57:22;;;;;;;0.50;0.50;;;5.70;99.90;;;;;;5066062;28;20276;-70
2023/11/23 01:59:50;;;;;;;0.60;0.60;;;5.80;99.90;;;;;;5068357;28;20608;-70
2023/11/23 02:02:16;;;;;;;0.50;0.50;;;5.80;99.90;;;;;;5068343;28;20242;-71
2023/11/23 02:04:42;;;;;;;0.60;0.60;;;5.80;99.90;;;;;;5066710;28;20196;-71
2023/11/23 02:07:08;;;;;;;0.50;0.50;;;5.90;99.90;;;;;;5068213;28;20203;-72
2023/11/23 02:09:34;;;;;;;0.68;0.68;;;5.90;99.90;;;;;;5068030;28;20189;-71
2023/11/23 02:12:06;;;;;;;2.15;1.52;;;5.80;99.90;;;;;;5067710;28;20189;-70
2023/11/23 02:14:33;;;;;;;0.70;0.70;;;5.90;99.90;;;;;;5067989;28;20208;-70
2023/11/23 02:16:59;;;;;;;0.60;0.60;;;5.90;99.90;;;;;;5068250;28;20188;-71
2023/11/23 02:19:24;;;;;;;0.70;0.70;;;6.00;99.90;;;;;;5068074;28;20311;-69
2023/11/23 02:21:50;;;;;;;0.60;0.60;;;6.10;99.90;;;;;;5068239;28;20196;-70
2023/11/23 02:24:16;;;;;;;0.95;0.95;;;6.10;99.90;;;;;;5067930;28;20193;-72
2023/11/23 02:26:42;;;;;;;0.40;0.40;;;6.10;99.90;;;;;;5067525;28;20192;-70
2023/11/23 02:29:07;;;;;;;0.60;0.60;;;6.10;99.90;;;;;;5067507;28;20720;-70
2023/11/23 02:31:33;;;;;;;0.80;0.80;;;6.10;99.90;;;;;;5069111;28;20219;-70
2023/11/23 02:34:00;;;;;;;0.60;0.60;;;6.10;99.90;;;;;;5071788;28;20284;-70
2023/11/23 02:36:26;;;;;;;0.70;0.70;;;6.10;99.90;;;;;;5071568;28;20326;-70
2023/11/23 02:38:52;;;;;;;0.60;0.60;;;6.10;99.90;;;;;;5071598;28;20555;-72
2023/11/23 02:41:17;;;;;;;0.60;0.60;;;6.10;99.90;;;;;;5071544;28;20560;-73
2023/11/23 02:43:43;;;;;;;0.70;0.70;;;6.10;99.90;;;;;;5071543;28;20189;-70
2023/11/23 02:46:09;;;;;;;0.50;0.50;;;6.20;99.90;;;;;;5071706;28;20651;-70
2023/11/23 02:48:34;;;;;;;0.60;0.60;;;6.20;99.90;;;;;;5071546;28;20203;-71
2023/11/23 02:51:00;;;;;;;0.75;0.75;;;6.20;99.90;;;;;;5069430;28;20236;-70
2023/11/23 02:53:31;;;;;;;0.60;0.60;;;6.30;99.90;;;;;;5050042;28;20229;-70
2023/11/23 02:55:57;;;;;;;0.50;0.50;;;6.30;99.90;;;;;;5057424;28;20481;-68
2023/11/23 02:58:23;;;;;;;0.55;0.55;;;6.20;99.90;;;;;;5071015;28;20194;-68
2023/11/23 03:00:51;;;;;;;0.73;0.73;;;6.30;99.90;;;;;;5071442;28;20209;-69
2023/11/23 03:03:16;;;;;;;0.63;0.63;;;6.30;99.90;;;;;;5071041;28;20199;-68
2023/11/23 03:05:42;;;;;;;0.52;0.52;;;6.20;99.90;;;;;;5070810;28;20197;-68
2023/11/23 03:08:08;;;;;;;0.60;0.60;;;6.10;99.90;;;;;;5070871;28;20275;-70
2023/11/23 03:10:34;;;;;;;0.70;0.70;;;6.10;99.90;;;;;;5069605;28;20681;-70
2023/11/23 03:13:00;;;;;;;0.63;0.63;;;6.20;99.90;;;;;;5071341;28;20201;-71
2023/11/23 03:15:26;;;;;;;0.70;0.70;;;6.20;99.90;;;;;;5070994;28;20219;-71
2023/11/23 03:17:52;;;;;;;0.60;0.60;;;6.20;99.90;;;;;;5071096;28;20200;-70
2023/11/23 03:20:17;;;;;;;0.60;0.60;;;6.20;99.90;;;;;;5070920;28;20742;-70
2023/11/23 03:22:43;;;;;;;0.60;0.60;;;6.10;99.90;;;;;;5070765;28;20258;-70
2023/11/23 03:25:09;;;;;;;0.50;0.50;;;6.10;99.90;;;;;;5070791;28;20224;-70
2023/11/23 03:27:36;;;;;;;0.50;0.50;;;6.10;99.90;;;;;;5070072;28;20288;-72
2023/11/23 03:30:05;;;;;;;0.50;0.50;;;6.20;99.90;;;;;;5070772;28;20196;-71
2023/11/23 03:32:32;;;;;;;0.50;0.50;;;6.20;99.90;;;;;;5070609;28;20200;-71
2023/11/23 03:35:01;;;;;;;0.65;0.65;;;6.10;99.90;;;;;;5070658;28;20234;-70
2023/11/23 03:37:27;;;;;;;0.40;0.40;;;6.00;99.90;;;;;;5070578;28;20201;-70
2023/11/23 03:39:54;;;;;;;0.60;0.60;;;6.10;99.90;;;;;;5070557;28;20223;-70
2023/11/23 03:42:20;;;;;;;0.60;0.60;;;6.10;99.90;;;;;;5070201;28;20633;-70
2023/11/23 03:44:45;;;;;;;0.50;0.50;;;6.10;99.90;;;;;;5068647;28;20197;-70
2023/11/23 03:47:11;;;;;;;0.50;0.50;;;6.20;99.90;;;;;;5068861;28;20201;-70
2023/11/23 03:49:37;;;;;;;0.60;0.60;;;6.20;99.90;;;;;;5050089;28;20231;-70
2023/11/23 03:52:03;;;;;;;0.65;0.65;;;6.10;99.90;;;;;;5048749;28;20268;-70
2023/11/23 03:54:28;;;;;;;0.60;0.60;;;6.10;99.90;;;;;;5048969;28;20193;-69
2023/11/23 03:56:54;;;;;;;0.60;0.60;;;6.10;99.90;;;;;;5063800;28;20196;-70
2023/11/23 03:59:20;;;;;;;0.68;0.68;;;6.10;99.90;;;;;;5069871;28;20200;-72
2023/11/23 04:01:49;;;;;;;0.60;0.60;;;5.90;99.90;;;;;;5069240;28;20274;-69
2023/11/23 04:04:15;;;;;;;0.47;0.47;;;5.90;99.90;;;;;;5069698;28;20691;-70
2023/11/23 04:06:41;;;;;;;0.57;0.57;;;5.90;99.90;;;;;;5069650;28;20201;-70
2023/11/23 04:09:10;;;;;;;1.33;1.23;;;5.80;99.90;;;;;;5070061;28;20204;-71
2023/11/23 04:11:35;;;;;;;0.55;0.55;;;5.80;99.90;;;;;;5069812;28;20189;-70
2023/11/23 04:14:01;;;;;;;0.50;0.50;;;5.80;99.90;;;;;;5069749;28;20205;-71
2023/11/23 04:16:27;;;;;;;0.68;0.68;;;5.80;99.90;;;;;;5068390;28;20726;-70
2023/11/23 04:18:52;;;;;;;0.60;0.60;;;5.80;99.90;;;;;;5070195;28;20228;-70
2023/11/23 04:21:18;;;;;;;0.65;0.65;;;5.80;99.90;;;;;;5068350;28;20265;-72
2023/11/23 04:23:44;;;;;;;0.50;0.50;;;5.80;99.90;;;;;;5068856;28;20207;-70
2023/11/23 04:26:09;;;;;;;0.60;0.60;;;5.70;99.90;;;;;;5069492;28;20189;-71
2023/11/23 04:28:36;;;;;;;0.50;0.50;;;5.70;99.90;;;;;;5069520;28;20185;-70
2023/11/23 04:31:03;;;;;;;0.60;0.60;;;5.60;99.90;;;;;;5069421;28;20240;-70
2023/11/23 04:33:29;;;;;;;10.15;2.28;;;5.60;99.90;;;;;;5069259;28;20189;-69
2023/11/23 04:35:55;;;;;;;0.50;0.50;;;5.70;99.90;;;;;;5067872;28;20295;-70
2023/11/23 04:38:20;;;;;;;0.70;0.70;;;5.70;99.90;;;;;;5069197;28;20276;-71
2023/11/23 04:40:46;;;;;;;0.60;0.60;;;5.70;99.90;;;;;;5069791;28;20208;-70
2023/11/23 04:43:12;;;;;;;0.60;0.60;;;5.70;99.90;;;;;;5068161;28;20200;-74
2023/11/23 04:45:38;;;;;;;0.60;0.60;;;5.70;99.90;;;;;;5068907;28;20274;-74
2023/11/23 04:48:05;;;;;;;0.50;0.50;;;5.50;99.90;;;;;;5069493;28;20267;-75
2023/11/23 04:50:31;;;;;;;0.50;0.50;;;5.50;99.90;;;;;;5067393;28;20638;-72
2023/11/23 04:52:57;;;;;;;0.73;0.73;;;5.40;99.90;;;;;;5069190;28;20208;-73
2023/11/23 04:55:22;;;;;;;0.60;0.60;;;5.30;99.90;;;;;;5067171;28;20192;-74
2023/11/23 04:57:48;;;;;;;0.50;0.50;;;5.20;99.90;;;;;;5069375;28;20203;-74
2023/11/23 05:00:15;;;;;;;0.60;0.60;;;5.00;99.90;;;;;;5069490;28;20204;-75
2023/11/23 05:02:43;;;;;;;0.60;0.60;;;4.90;99.90;;;;;;5068694;28;20239;-74
2023/11/23 05:05:12;;;;;;;0.70;0.70;;;4.70;99.90;;;;;;5069112;28;20280;-74
2023/11/23 05:07:38;;;;;;;0.60;0.60;;;4.50;99.90;;;;;;5067440;28;20540;-74
2023/11/23 05:10:08;;;;;;;0.50;0.50;;;4.30;99.90;;;;;;5067444;28;20634;-74
2023/11/23 05:12:34;;;;;;;0.50;0.50;;;4.20;99.90;;;;;;5069166;28;20200;-73
2023/11/23 05:15:00;;;;;;;0.60;0.60;;;4.00;99.90;;;;;;5069027;28;20201;-74
2023/11/23 05:17:26;;;;;;;0.60;0.60;;;4.10;99.90;;;;;;5068820;28;20242;-75
2023/11/23 05:19:51;;;;;;;0.60;0.60;;;4.00;99.90;;;;;;5067891;28;20209;-74
2023/11/23 05:22:17;;;;;;;0.63;0.63;;;3.90;99.90;;;;;;5068882;28;20192;-74
2023/11/23 05:24:43;;;;;;;0.80;0.80;;;3.70;99.90;;;;;;5068898;28;20234;-74
2023/11/23 05:27:08;;;;;;;0.60;0.60;;;3.70;99.90;;;;;;5068670;28;20239;-73
2023/11/23 05:29:34;;;;;;;0.68;0.68;;;3.80;99.90;;;;;;5069336;28;20196;-73
2023/11/23 05:32:00;;;;;;;0.68;0.68;;;3.70;99.90;;;;;;5069358;28;20199;-74
2023/11/23 05:34:25;;;;;;;0.60;0.60;;;3.80;99.90;;;;;;5068474;28;20196;-73
2023/11/23 05:36:51;;;;;;;0.50;0.50;;;3.90;99.90;;;;;;5068647;28;20586;-74
2023/11/23 05:39:17;;;;;;;0.60;0.60;;;4.10;99.90;;;;;;5068546;28;20223;-76
2023/11/23 05:41:43;;;;;;;0.60;0.60;;;4.20;99.90;;;;;;5050277;28;20197;-74
2023/11/23 05:44:09;;;;;;;0.50;0.50;;;4.50;99.90;;;;;;5048589;28;20692;-75
2023/11/23 05:46:34;;;;;;;0.60;0.60;;;4.60;99.90;;;;;;5048267;28;20221;-75
2023/11/23 05:49:00;;;;;;;0.60;0.60;;;4.80;99.90;;;;;;5048528;28;20232;-73
2023/11/23 05:51:27;;;;;;;3.92;1.48;;;4.90;99.90;;;;;;5048160;28;20229;-75
2023/11/23 05:53:53;;;;;;;0.80;0.80;;;5.00;99.90;;;;;;5048593;28;20189;-73
2023/11/23 05:56:19;;;;;;;0.57;0.57;;;5.00;99.90;;;;;;5057417;28;20209;-73
2023/11/23 05:58:45;;;;;;;0.57;0.57;;;5.10;99.90;;;;;;5068290;28;20193;-73
2023/11/23 06:01:10;;;;;;;0.50;0.50;;;5.20;99.90;;;;;;5068284;28;20216;-74
2023/11/23 06:03:37;;;;;;;0.57;0.57;;;5.20;99.90;;;;;;5068383;28;20249;-73
2023/11/23 06:06:03;;;;;;;0.40;0.40;;;5.20;99.90;;;;;;5069124;28;20192;-73
2023/11/23 06:08:29;;;;;;;1.20;1.10;;;5.30;99.90;;;;;;5072205;28;20205;-73
2023/11/23 06:10:55;;;;;;;0.57;0.57;;;5.30;99.90;;;;;;5072350;28;20625;-73
2023/11/23 06:13:20;;;;;;;0.50;0.50;;;5.30;99.90;;;;;;5071975;28;20676;-73
2023/11/23 06:15:46;;;;;;;0.60;0.60;;;5.20;99.90;;;;;;5071258;28;20220;-74
2023/11/23 06:18:11;;;;;;;0.60;0.60;;;5.20;99.90;;;;;;5072141;28;20205;-73
2023/11/23 06:20:37;;;;;;;0.63;0.63;;;5.10;99.90;;;;;;5071733;28;20216;-73
2023/11/23 06:23:03;;;;;;;0.90;0.90;;;5.10;99.90;;;;;;5072050;28;20215;-74
2023/11/23 06:25:28;;;;;;;0.52;0.52;;;5.00;99.90;;;;;;5072023;28;20212;-73
2023/11/23 06:27:54;;;;;;;0.47;0.47;;;4.80;99.90;;;;;;5071683;28;20656;-74
2023/11/23 06:30:19;;;;;;;0.63;0.63;;;4.70;99.90;;;;;;5071866;28;20189;-72
2023/11/23 06:32:46;;;;;;;0.60;0.60;;;4.50;99.90;;;;;;5071730;28;20201;-73
2023/11/23 06:35:11;;;;;;;0.57;0.57;;;4.40;99.90;;;;;;5071757;28;20273;-73
2023/11/23 06:37:37;;;;;;;0.60;0.60;;;4.10;99.90;;;;;;5071350;28;20315;-73
2023/11/23 06:40:03;;;;;;;0.70;0.70;;;4.10;99.90;;;;;;5071675;28;20219;-73
2023/11/23 06:42:29;;;;;;;0.60;0.60;;;4.00;99.90;;;;;;5070135;28;20201;-73
2023/11/23 06:44:55;;;;;;;0.50;0.50;;;3.90;99.90;;;;;;5071657;28;20192;-73
2023/11/23 06:47:20;;;;;;;0.60;0.60;;;3.70;99.90;;;;;;5071332;28;20694;-73
2023/11/23 06:49:46;;;;;;;0.60;0.60;;;3.50;99.90;;;;;;5071389;28;20192;-73
2023/11/23 06:52:12;;;;;;;0.73;0.73;;;3.40;99.90;;;;;;5071162;28;20232;-73
2023/11/23 06:54:38;;;;;;;0.60;0.60;;;3.40;99.90;;;;;;5071435;28;20599;-73
2023/11/23 06:57:04;;;;;;;0.60;0.60;;;3.50;99.90;;;;;;5071058;28;21024;-72
2023/11/23 06:59:33;;;;;;;0.68;0.68;;;3.50;99.90;;;;;;5071147;28;20212;-73
2023/11/23 07:01:59;;;;;;;0.57;0.57;;;3.30;99.90;;;;;;5071202;28;20262;-73
2023/11/23 07:04:24;;;;;;;0.60;0.60;;;3.40;99.90;;;;;;5069820;28;20248;-71
2023/11/23 07:06:50;;;;;;;0.70;0.70;;;3.60;99.90;;;;;;5071240;28;20196;-72
2023/11/23 07:09:17;;;;;;;0.60;0.60;;;3.70;99.90;;;;;;5070928;28;20247;-71
2023/11/23 07:11:44;;;;;;;0.50;0.50;;;4.00;99.90;;;;;;5069948;28;20258;-71
2023/11/23 07:14:10;;;;;;;0.60;0.60;;;4.10;99.90;;;;;;5071224;28;20228;-74
2023/11/23 07:16:36;;;;;;;0.65;0.65;;;4.20;99.90;;;;;;5071023;28;20270;-73
2023/11/23 07:19:02;;;;;;;0.50;0.50;;;4.40;99.90;;;;;;5069601;28;20197;-74
2023/11/23 07:21:28;;;;;;;0.60;0.60;;;4.50;99.90;;;;;;5069543;28;20207;-74
2023/11/23 07:23:54;;;;;;;0.50;0.50;;;4.80;99.90;;;;;;5070847;28;20729;-74
2023/11/23 07:26:20;;;;;;;0.70;0.70;;;4.90;99.90;;;;;;5070794;28;20481;-74
2023/11/23 07:28:46;;;;;;;0.60;0.60;;;5.00;99.90;;;;;;5071046;28;20188;-74
2023/11/23 07:31:12;;;;;;;0.70;0.70;;;5.10;99.90;;;;;;5052609;28;20213;-73
2023/11/23 07:33:38;;;;;;;0.60;0.60;;;5.10;99.90;;;;;;5050484;28;20571;-73
2023/11/23 07:36:05;;;;;;;0.80;0.80;;;5.00;99.90;;;;;;5049467;28;20204;-75
2023/11/23 07:38:32;;;;;;;0.50;0.50;;;5.10;99.90;;;;;;5050604;28;20216;-73
2023/11/23 07:40:58;;;;;;;0.50;0.50;;;5.10;99.90;;;;;;5050789;28;20576;-75
2023/11/23 07:43:24;;;;;;;0.55;0.55;;;5.10;99.90;;;;;;5050371;28;20688;-74
2023/11/23 07:45:50;;;;;;;1.20;1.08;;;5.10;99.90;;;;;;5050342;28;20197;-74
2023/11/23 07:48:16;;;;;;;0.60;0.60;;;5.10;99.90;;;;;;5048925;28;20197;-75
2023/11/23 07:50:43;;;;;;;0.60;0.60;;;4.90;99.90;;;;;;5048752;28;20261;-75
2023/11/23 07:53:08;;;;;;;0.50;0.50;;;4.80;99.90;;;;;;5050258;28;20204;-75
2023/11/23 07:55:35;;;;;;;0.50;0.50;;;4.70;99.90;;;;;;5052968;28;20192;-75
2023/11/23 07:58:01;;;;;;;0.50;0.50;;;4.60;99.90;;;;;;5070320;28;20189;-75
2023/11/23 08:00:27;;;;;;;0.50;0.50;;;4.70;99.90;;;;;;5068741;28;20212;-74
2023/11/23 08:02:54;;;;;;;0.60;0.60;;;4.80;99.90;;;;;;5070207;28;20695;-73
2023/11/23 08:05:20;;;;;;;0.50;0.50;;;4.70;99.90;;;;;;5070099;28;20212;-75
2023/11/23 08:07:47;;;;;;;0.80;0.80;;;4.70;99.90;;;;;;5069369;28;20216;-74
2023/11/23 08:10:15;;;;;;;0.47;0.47;;;4.60;99.90;;;;;;5068485;28;20201;-74
2023/11/23 08:12:42;;;;;;;0.50;0.50;;;4.50;99.90;;;;;;5069887;28;20259;-75
2023/11/23 08:15:09;;;;;;;0.40;0.40;;;4.50;99.90;;;;;;5070038;28;20653;-73
2023/11/23 08:17:36;;;;;;;0.50;0.50;;;4.50;99.90;;;;;;5069861;28;20184;-73
2023/11/23 08:20:06;;;;;;;0.47;0.47;;;4.40;99.90;;;;;;5069833;28;20606;-73
2023/11/23 08:22:32;;;;;;;0.52;0.52;;;4.40;99.90;;;;;;5069782;28;20224;-73
2023/11/23 08:24:58;;;;;;;0.63;0.63;;;4.60;99.90;;;;;;5069725;28;20239;-73
2023/11/23 08:27:24;;;;;;;0.60;0.60;;;4.80;99.90;;;;;;5069719;28;20656;-73
2023/11/23 08:29:50;;;;;;;0.50;0.50;;;4.80;99.90;;;;;;5056537;28;20202;-73
2023/11/23 08:32:15;;;;;;;0.60;0.60;;;5.10;99.90;;;;;;5049892;28;20225;-73
2023/11/23 08:34:42;;;;;;;0.47;0.47;;;5.30;99.90;;;;;;5049527;28;20657;-73
2023/11/23 08:37:08;;;;;;;0.50;0.50;;;5.40;99.90;;;;;;5049662;28;20288;-73
2023/11/23 08:39:34;;;;;;;0.50;0.50;;;5.50;99.90;;;;;;5049418;28;20296;-73
2023/11/23 08:42:00;;;;;;;0.60;0.60;;;5.50;99.90;;;;;;5049660;28;20740;-73
2023/11/23 08:44:26;;;;;;;0.60;0.60;;;5.60;99.90;;;;;;5048391;28;20308;-72
2023/11/23 08:46:51;;;;;;;0.77;0.77;;;5.70;99.90;;;;;;5050046;28;20194;-73
2023/11/23 08:49:17;;;;;;;0.60;0.60;;;5.70;99.90;;;;;;5049559;28;20548;-73
2023/11/23 08:51:43;;;;;;;0.50;0.50;;;5.80;99.90;;;;;;5049147;28;20229;-73
2023/11/23 08:54:08;;;;;;;0.50;0.50;;;5.90;99.90;;;;;;5049275;28;20194;-73
2023/11/23 08:56:35;;;;;;;0.50;0.50;;;5.90;99.90;;;;;;5060212;28;20564;-73
2023/11/23 08:59:01;;;;;;;0.55;0.55;;;5.90;99.90;;;;;;5069017;28;20266;-73
2023/11/23 09:01:27;;;;;;;0.60;0.60;;;6.00;99.90;;;;;;5068823;28;20708;-73
2023/11/23 09:03:54;;;;;;;0.43;0.43;;;5.90;99.90;;;;;;5068485;28;20562;-73
2023/11/23 09:06:23;;;;;;;0.70;0.70;;;5.90;99.90;;;;;;5069171;28;20277;-73
2023/11/23 09:08:49;;;;;;;0.60;0.60;;;5.90;99.90;;;;;;5069027;28;20193;-73
2023/11/23 09:11:15;;;;;;;0.60;0.60;;;5.80;99.90;;;;;;5069005;28;20617;-73
2023/11/23 09:13:43;;;;;;;0.60;0.60;;;5.80;99.90;;;;;;5068908;28;20207;-73
2023/11/23 09:16:11;;;;;;;0.50;0.50;;;5.80;99.90;;;;;;5069345;28;20195;-73
2023/11/23 09:18:36;;;;;;;0.70;0.70;;;5.80;99.90;;;;;;5068804;28;20220;-73
2023/11/23 09:21:03;;;;;;;0.50;0.50;;;5.70;99.90;;;;;;5068729;28;20644;-73
2023/11/23 09:23:29;;;;;;;0.63;0.63;;;5.80;99.90;;;;;;5068898;28;20528;-75
2023/11/23 09:25:54;;;;;;;0.52;0.52;;;5.80;99.90;;;;;;5068543;28;20242;-74
2023/11/23 09:28:22;;;;;;;0.50;0.50;;;5.80;99.90;;;;;;5068583;28;20200;-74
2023/11/23 09:30:48;;;;;;;0.70;0.70;;;5.70;99.90;;;;;;5068638;28;20279;-74
2023/11/23 09:33:13;;;;;;;0.50;0.50;;;5.60;99.90;;;;;;5068829;28;20279;-74
2023/11/23 09:35:39;;;;;;;0.70;0.70;;;5.70;99.90;;;;;;5068597;28;21168;-74
2023/11/23 09:38:06;;;;;;;0.68;0.68;;;5.80;99.90;;;;;;5068643;28;20627;-74
2023/11/23 09:40:32;;;;;;;1.55;1.27;;;5.90;99.90;;;;;;5068373;28;20641;-73
2023/11/23 09:42:58;;;;;;;0.60;0.60;;;5.90;99.90;;;;;;5071672;28;20210;-73
2023/11/23 09:45:24;;;;;;;0.70;0.70;;;6.00;99.90;;;;;;5072583;28;20196;-74
2023/11/23 09:47:51;;;;;;;0.70;0.70;;;6.00;99.90;;;;;;5072746;28;20189;-75
2023/11/23 09:50:20;;;;;;;0.70;0.70;;;6.00;99.90;;;;;;5072879;28;20211;-75
2023/11/23 09:52:47;;;;;;;0.70;0.70;;;6.10;99.90;;;;;;5072442;28;20596;-74
2023/11/23 09:55:16;;;;;;;1.08;1.02;;;6.20;99.90;;;;;;5070998;28;20208;-74
2023/11/23 09:57:44;;;;;;;0.50;0.50;;;6.20;99.90;;;;;;5072461;28;20235;-73
2023/11/23 10:00:18;;;;;;;0.60;0.60;;;6.30;99.90;;;;;;5072143;28;20212;-74
2023/11/23 10:02:45;;;;;;;0.70;0.70;;;6.30;99.90;;;;;;5072429;28;20550;-74
2023/11/23 10:05:15;;;;;;;0.60;0.60;;;6.30;99.90;;;;;;5072550;28;20193;-74
2023/11/23 10:07:45;;;;;;;0.63;0.63;;;6.30;99.90;;;;;;5072220;28;20210;-74
2023/11/23 10:10:12;;;;;;;0.52;0.52;;;6.30;99.90;;;;;;5072381;28;20660;-73
2023/11/23 10:12:38;;;;;;;0.50;0.50;;;6.40;99.90;;;;;;5072343;28;20244;-73
2023/11/23 10:15:10;;;;;;;0.50;0.50;;;6.30;99.90;;;;;;5072382;28;20672;-74
2023/11/23 10:17:36;;;;;;;0.52;0.52;;;6.30;99.90;;;;;;5071265;28;20846;-73
2023/11/23 10:20:16;;;;;;;0.60;0.60;;;6.30;99.90;;;;;;5071972;28;20725;-74
2023/11/23 10:22:45;;;;;;;0.60;0.60;;;6.40;99.90;;;;;;5056042;28;20280;-73
2023/11/23 10:25:24;;;;;;;0.60;0.60;;;6.40;99.90;;;;;;5052144;28;20349;-75
2023/11/23 10:27:50;;;;;;;0.60;0.60;;;6.40;99.90;;;;;;5052010;28;20661;-74
2023/11/23 10:30:16;;;;;;;0.50;0.50;;;6.40;99.90;;;;;;5051990;28;20228;-74
2023/11/23 10:32:42;;;;;;;0.70;0.70;;;6.30;99.90;;;;;;5051831;28;20630;-74
2023/11/23 10:35:09;;;;;;;0.60;0.60;;;6.30;99.90;;;;;;5052029;28;20288;-73
2023/11/23 10:37:38;;;;;;;0.70;0.70;;;6.30;99.90;;;;;;5051731;28;20662;-74
2023/11/23 10:40:07;;;;;;;0.60;0.60;;;6.20;99.90;;;;;;5051768;28;20237;-73
2023/11/23 10:42:35;;;;;;;0.68;0.68;;;6.30;99.90;;;;;;5050218;28;20541;-73
2023/11/23 10:45:01;;;;;;;0.60;0.60;;;6.40;99.90;;;;;;5050242;28;20186;-73
2023/11/23 10:47:29;;;;;;;0.60;0.60;;;6.40;99.90;;;;;;5051449;28;20228;-74
2023/11/23 10:49:57;;;;;;;0.50;0.50;;;6.30;99.90;;;;;;5050209;28;20233;-74
2023/11/23 10:52:23;;;;;;;0.50;0.50;;;6.40;99.90;;;;;;5049494;28;20237;-74
2023/11/23 10:54:49;;;;;;;0.57;0.57;;;6.30;99.90;;;;;;5051440;28;20348;-74
2023/11/23 10:57:16;;;;;;;0.60;0.60;;;6.40;99.90;;;;;;5066683;28;20321;-74
2023/11/23 10:59:44;;;;;;;0.60;0.60;;;6.50;99.90;;;;;;5071021;28;20287;-73
2023/11/23 11:02:11;;;;;;;0.60;0.60;;;6.60;99.90;;;;;;5071434;28;20223;-74
2023/11/23 11:04:37;;;;;;;0.65;0.65;;;6.70;99.90;;;;;;5071177;28;20207;-74
2023/11/23 11:07:05;;;;;;;0.60;0.60;;;6.80;99.90;;;;;;5071310;28;20192;-73
2023/11/23 11:09:33;;;;;;;0.52;0.52;;;6.80;99.90;;;;;;5069840;28;20304;-74
2023/11/23 11:12:02;;;;;;;0.60;0.60;;;6.90;99.90;;;;;;5071328;28;20267;-74
2023/11/23 11:14:35;;;;;;;0.60;0.60;;;7.00;99.90;;;;;;5071062;28;20215;-74
2023/11/23 11:17:10;;;;;;;0.60;0.60;;;7.00;99.90;;;;;;5071365;28;20201;-75
2023/11/23 11:19:49;;;;;;;0.65;0.65;;;7.10;99.90;;;;;;5070742;28;20739;-73
2023/11/23 11:22:14;;;;;;;0.60;0.60;;;7.00;99.90;;;;;;5071188;28;20280;-74
2023/11/23 11:24:41;;;;;;;0.50;0.50;;;7.10;99.90;;;;;;5070909;28;20307;-74
2023/11/23 11:27:12;;;;;;;0.50;0.50;;;7.00;99.90;;;;;;5070769;28;20196;-73
2023/11/23 11:29:38;;;;;;;0.52;0.52;;;6.90;99.90;;;;;;5070830;28;20208;-74
2023/11/23 11:32:07;;;;;;;0.70;0.70;;;6.90;99.90;;;;;;5070659;28;20193;-74
2023/11/23 11:34:34;;;;;;;0.63;0.63;;;6.80;99.90;;;;;;5070717;28;20255;-73
2023/11/23 11:37:01;;;;;;;0.60;0.60;;;6.70;99.90;;;;;;5070748;28;20665;-74
2023/11/23 11:39:35;;;;;;;0.60;0.60;;;6.60;99.90;;;;;;5069227;28;20570;-74
2023/11/23 11:42:04;;;;;;;0.70;0.70;;;6.60;99.90;;;;;;5071313;28;20211;-74
2023/11/23 11:44:33;;;;;;;0.50;0.50;;;6.60;99.90;;;;;;5069422;28;20280;-71
2023/11/23 11:47:00;;;;;;;0.60;0.60;;;6.60;99.90;;;;;;5070465;28;20228;-71
2023/11/23 11:49:26;;;;;;;0.60;0.60;;;6.50;99.90;;;;;;5070243;28;20208;-70
2023/11/23 11:51:52;;;;;;;0.60;0.60;;;6.50;99.90;;;;;;5069846;28;20229;-71
2023/11/23 11:54:22;;;;;;;0.70;0.70;;;6.60;99.90;;;;;;5070402;28;20561;-70
2023/11/23 11:56:49;;;;;;;0.65;0.65;;;6.60;99.90;;;;;;5070066;28;20212;-70
2023/11/23 11:59:20;;;;;;;0.60;0.60;;;6.60;99.90;;;;;;5069956;28;20208;-71
2023/11/23 12:01:50;;;;;;;0.70;0.70;;;6.70;99.90;;;;;;5068617;28;20223;-71
2023/11/23 12:04:19;;;;;;;0.60;0.60;;;6.80;99.90;;;;;;5069373;28;20663;-72
2023/11/23 12:06:50;;;;;;;0.60;0.60;;;6.80;99.90;;;;;;5070024;28;20643;-70
2023/11/23 12:09:19;;;;;;;0.50;0.50;;;6.80;99.90;;;;;;5070116;28;20675;-71
2023/11/23 12:11:48;;;;;;;0.60;0.60;;;6.70;99.90;;;;;;5057439;28;20201;-71
2023/11/23 12:14:15;;;;;;;0.60;0.60;;;6.70;99.90;;;;;;5057682;28;20209;-72
2023/11/23 12:16:42;;;;;;;0.60;0.60;;;6.60;99.90;;;;;;5070032;28;20618;-69
2023/11/23 12:19:19;;;;;;;0.57;0.57;;;6.60;99.90;;;;;;5069859;28;20207;-70
2023/11/23 12:21:56;;;;;;;0.70;0.70;;;6.60;99.90;;;;;;5070093;28;20200;-72
2023/11/23 12:24:26;;;;;;;0.70;0.70;;;6.60;99.90;;;;;;5069607;28;20200;-71
2023/11/23 12:26:53;;;;;;;0.65;0.65;;;6.60;99.90;;;;;;5069667;28;20572;-70
2023/11/23 12:29:23;;;;;;;0.70;0.70;;;6.60;99.90;;;;;;5069622;28;20181;-71
2023/11/23 12:31:49;;;;;;;0.55;0.55;;;6.60;99.90;;;;;;5069530;28;20607;-71
2023/11/23 12:34:15;;;;;;;0.70;0.70;;;6.50;99.90;;;;;;5069458;28;20728;-70
2023/11/23 12:36:43;;;;;;;0.60;0.60;;;6.40;99.90;;;;;;5069410;28;20279;-71
2023/11/23 12:39:09;;;;;;;0.70;0.70;;;6.40;99.90;;;;;;5069842;28;20660;-70
2023/11/23 12:41:35;;;;;;;0.60;0.60;;;6.40;99.90;;;;;;5069114;28;20331;-70
2023/11/23 12:44:00;;;;;;;0.50;0.50;;;6.30;99.90;;;;;;5069527;28;20212;-71
2023/11/23 12:46:26;;;;;;;0.70;0.70;;;6.20;99.90;;;;;;5069184;28;20189;-71
2023/11/23 12:48:52;;;;;;;0.70;0.70;;;6.10;99.90;;;;;;5067577;28;20741;-70
2023/11/23 12:51:18;;;;;;;0.60;0.60;;;6.10;99.90;;;;;;5069014;28;20281;-70
2023/11/23 12:53:44;;;;;;;0.70;0.70;;;6.10;99.90;;;;;;5069509;28;20220;-76